Time;durP1;ratioP1;P1;durP2;ratioP2;P2;SDS_P1;SDS_P2;PMS_P1;PMS_P2;Temp;Humidity;BMP_temperature;BMP_pressure;BME280_temperature;BME280_humidity;BME280_pressure;Samples;Min_cycle;Max_cycle;Signal;HPM_P1;HPM_P2
2024/01/27 00:00:09;;;;;;;15.77;3.20;;;5.20;99.90;;;;;;5034960;28;20193;-90
2024/01/27 00:02:36;;;;;;;19.47;3.43;;;5.20;99.90;;;;;;5034359;28;20182;-88
2024/01/27 00:05:02;;;;;;;25.17;3.20;;;5.20;99.90;;;;;;5034413;28;20210;-90
2024/01/27 00:07:28;;;;;;;19.43;3.27;;;5.20;99.90;;;;;;5034740;28;20178;-88
2024/01/27 00:09:59;;;;;;;14.77;3.13;;;5.10;99.90;;;;;;5036127;28;20186;-89
2024/01/27 00:12:24;;;;;;;14.97;2.67;;;5.10;99.90;;;;;;5027269;28;20216;-89
2024/01/27 00:14:50;;;;;;;18.53;2.73;;;5.10;99.90;;;;;;5034808;28;20257;-90
2024/01/27 00:17:16;;;;;;;18.40;2.33;;;5.10;99.90;;;;;;5034697;28;20194;-91
2024/01/27 00:19:43;;;;;;;16.63;2.50;;;5.10;99.90;;;;;;5034832;28;20178;-90
2024/01/27 00:22:09;;;;;;;21.43;3.30;;;5.10;99.90;;;;;;5034791;28;20515;-90
2024/01/27 00:24:34;;;;;;;13.83;2.60;;;5.00;99.90;;;;;;5034752;28;20289;-90
2024/01/27 00:27:00;;;;;;;20.53;3.07;;;5.00;99.90;;;;;;5034573;28;20273;-90
2024/01/27 00:29:26;;;;;;;18.73;2.67;;;5.00;99.90;;;;;;5034491;28;20186;-90
2024/01/27 00:31:54;;;;;;;19.47;3.20;;;5.00;99.90;;;;;;5034489;28;20179;-91
2024/01/27 00:34:20;;;;;;;22.23;3.00;;;4.90;99.90;;;;;;5034496;28;20190;-88
2024/01/27 00:36:48;;;;;;;14.50;2.90;;;5.00;99.90;;;;;;5034322;28;20230;-92
2024/01/27 00:39:18;;;;;;;16.93;2.80;;;5.10;99.90;;;;;;5034353;28;20277;-88
2024/01/27 00:41:54;;;;;;;13.77;3.10;;;5.00;99.90;;;;;;5034197;28;20244;-88
2024/01/27 00:44:20;;;;;;;10.63;2.20;;;5.00;99.90;;;;;;5034367;28;20213;-89
2024/01/27 00:46:46;;;;;;;16.17;2.70;;;5.00;99.90;;;;;;5034208;28;20182;-93
2024/01/27 00:49:12;;;;;;;14.20;2.53;;;5.00;99.90;;;;;;5035205;28;20516;-89
2024/01/27 00:51:39;;;;;;;15.10;2.87;;;5.00;99.90;;;;;;5034141;28;20214;-90
2024/01/27 00:54:05;;;;;;;10.97;2.13;;;4.90;99.90;;;;;;5034035;28;20644;-88
2024/01/27 00:56:32;;;;;;;18.73;3.20;;;5.00;99.90;;;;;;5034130;28;20179;-88
2024/01/27 00:58:57;;;;;;;14.90;2.63;;;5.00;99.90;;;;;;5034053;28;20522;-88
2024/01/27 01:01:24;;;;;;;24.03;3.20;;;5.10;99.90;;;;;;5035290;28;20198;-88
2024/01/27 01:03:50;;;;;;;22.67;3.03;;;5.10;99.90;;;;;;5034224;28;20667;-89
2024/01/27 01:06:16;;;;;;;16.23;2.70;;;5.00;99.90;;;;;;5034111;28;20190;-93
2024/01/27 01:08:41;;;;;;;15.73;2.70;;;5.00;99.90;;;;;;5033956;28;20197;-89
2024/01/27 01:11:09;;;;;;;23.43;3.67;;;4.90;99.90;;;;;;5033699;28;20183;-90
2024/01/27 01:13:35;;;;;;;19.63;2.80;;;4.90;99.90;;;;;;5034049;28;20185;-88
2024/01/27 01:16:00;;;;;;;16.07;2.83;;;4.90;99.90;;;;;;5034058;28;20182;-90
2024/01/27 01:18:26;;;;;;;19.40;3.20;;;4.90;99.90;;;;;;5034073;28;20297;-91
2024/01/27 01:21:08;;;;;;;18.87;2.37;;;4.90;99.90;;;;;;5033835;28;20179;-89
2024/01/27 01:23:34;;;;;;;22.70;2.57;;;4.90;99.90;;;;;;5027243;28;20256;-87
2024/01/27 01:26:00;;;;;;;20.67;2.77;;;4.90;99.90;;;;;;5034095;28;20662;-88
2024/01/27 01:28:26;;;;;;;12.07;2.50;;;4.80;99.90;;;;;;5033604;28;20186;-93
2024/01/27 01:30:53;;;;;;;16.07;3.27;;;4.70;99.90;;;;;;5033718;28;20205;-89
2024/01/27 01:33:18;;;;;;;17.17;2.63;;;4.70;99.90;;;;;;5034012;28;20198;-90
2024/01/27 01:35:45;;;;;;;16.33;2.70;;;4.80;99.90;;;;;;5033654;28;20178;-89
2024/01/27 01:38:11;;;;;;;13.30;3.00;;;4.90;99.90;;;;;;5033048;28;20234;-89
2024/01/27 01:40:45;;;;;;;17.93;2.80;;;4.70;99.90;;;;;;5036772;28;20175;-90
2024/01/27 01:43:12;;;;;;;17.17;2.70;;;4.60;99.90;;;;;;5037597;28;20213;-89
2024/01/27 01:45:37;;;;;;;17.77;3.03;;;4.60;99.90;;;;;;5037678;28;20182;-89
2024/01/27 01:48:04;;;;;;;14.90;3.20;;;4.70;99.90;;;;;;5037753;28;20182;-88
2024/01/27 01:50:30;;;;;;;13.43;2.73;;;4.80;99.90;;;;;;5037626;28;20617;-88
2024/01/27 01:52:56;;;;;;;14.07;2.87;;;4.70;99.90;;;;;;5037202;28;20273;-88
2024/01/27 01:55:22;;;;;;;18.30;4.03;;;4.80;99.90;;;;;;5037664;28;20190;-90
2024/01/27 01:57:48;;;;;;;11.90;3.03;;;4.80;99.90;;;;;;5037445;28;20206;-90
2024/01/27 02:00:14;;;;;;;16.07;3.20;;;4.80;99.90;;;;;;5037349;28;20186;-88
2024/01/27 02:02:42;;;;;;;21.17;2.67;;;4.90;99.90;;;;;;5037329;28;20186;-89
2024/01/27 02:05:09;;;;;;;27.30;3.57;;;5.00;99.90;;;;;;5038373;28;20245;-89
2024/01/27 02:07:38;;;;;;;18.93;3.27;;;5.00;99.90;;;;;;5037898;28;20205;-90
2024/01/27 02:10:06;;;;;;;13.83;2.70;;;4.90;99.90;;;;;;5037291;28;20269;-88
2024/01/27 02:12:32;;;;;;;16.67;3.03;;;4.90;99.90;;;;;;5037030;28;20209;-89
2024/01/27 02:14:57;;;;;;;20.20;2.80;;;4.90;99.90;;;;;;5037045;28;20605;-90
2024/01/27 02:17:23;;;;;;;20.40;3.13;;;4.90;99.90;;;;;;5036803;28;20186;-89
2024/01/27 02:19:49;;;;;;;13.87;2.67;;;5.00;99.90;;;;;;5036843;28;20178;-89
2024/01/27 02:22:16;;;;;;;21.87;3.17;;;5.00;99.90;;;;;;5036630;28;20179;-89
2024/01/27 02:24:42;;;;;;;18.07;3.10;;;4.90;99.90;;;;;;5038042;28;20206;-90
2024/01/27 02:27:07;;;;;;;21.93;4.10;;;5.00;99.90;;;;;;5038130;28;20241;-88
2024/01/27 02:29:33;;;;;;;22.63;3.53;;;5.00;99.90;;;;;;5036855;28;20186;-89
2024/01/27 02:32:12;;;;;;;23.10;3.77;;;5.00;99.90;;;;;;5037142;28;20201;-89
2024/01/27 02:34:38;;;;;;;17.07;2.87;;;5.00;99.90;;;;;;5036733;28;20186;-89
2024/01/27 02:37:05;;;;;;;18.03;3.47;;;5.00;99.90;;;;;;5036089;28;20230;-89
2024/01/27 02:39:30;;;;;;;20.73;3.23;;;5.10;99.90;;;;;;5036570;28;20273;-89
2024/01/27 02:41:58;;;;;;;21.47;3.20;;;5.10;99.90;;;;;;5036874;28;20210;-91
2024/01/27 02:44:24;;;;;;;13.83;2.40;;;5.10;99.90;;;;;;5036464;28;20208;-89
2024/01/27 02:46:50;;;;;;;17.83;2.70;;;5.10;99.90;;;;;;5035976;28;20183;-89
2024/01/27 02:49:16;;;;;;;17.20;2.70;;;5.00;99.90;;;;;;5035967;28;20182;-90
2024/01/27 02:51:41;;;;;;;26.13;3.60;;;5.10;99.90;;;;;;5036333;28;20190;-92
2024/01/27 02:54:07;;;;;;;20.03;3.37;;;5.10;99.90;;;;;;5036450;28;20186;-93
2024/01/27 02:56:33;;;;;;;21.67;3.97;;;5.20;99.90;;;;;;5036452;28;20183;-94
2024/01/27 02:58:58;;;;;;;23.63;4.13;;;5.20;99.90;;;;;;5036458;28;20277;-93
2024/01/27 03:01:32;;;;;;;17.43;2.87;;;5.20;99.90;;;;;;5036381;28;20186;-93
2024/01/27 03:03:58;;;;;;;17.97;3.43;;;5.20;99.90;;;;;;5036344;28;20249;-90
2024/01/27 03:06:26;;;;;;;20.90;3.60;;;5.30;99.90;;;;;;5036191;28;20205;-90
2024/01/27 03:08:52;;;;;;;20.10;3.30;;;5.20;99.90;;;;;;5035975;28;20186;-90
2024/01/27 03:11:18;;;;;;;21.57;3.30;;;5.20;99.90;;;;;;5035883;28;20186;-88
2024/01/27 03:13:45;;;;;;;18.83;3.23;;;5.20;99.90;;;;;;5036296;28;20186;-92
2024/01/27 03:16:11;;;;;;;18.83;3.20;;;5.20;99.90;;;;;;5035858;28;20218;-92
2024/01/27 03:18:37;;;;;;;16.87;3.10;;;5.10;99.90;;;;;;5035883;28;20646;-91
2024/01/27 03:21:05;;;;;;;25.83;4.23;;;5.10;99.90;;;;;;5035657;28;20206;-89
2024/01/27 03:23:31;;;;;;;23.00;3.27;;;5.10;99.90;;;;;;5035709;28;20217;-93
2024/01/27 03:25:57;;;;;;;21.93;3.80;;;5.00;99.90;;;;;;5035943;28;20186;-90
2024/01/27 03:28:23;;;;;;;22.63;3.20;;;5.00;99.90;;;;;;5035773;28;20183;-89
2024/01/27 03:30:48;;;;;;;25.67;4.27;;;4.90;99.90;;;;;;5035829;28;20617;-91
2024/01/27 03:33:16;;;;;;;17.00;2.90;;;5.00;99.90;;;;;;5035627;28;20228;-89
2024/01/27 03:35:42;;;;;;;26.47;3.50;;;5.00;99.90;;;;;;5037147;28;20179;-88
2024/01/27 03:38:08;;;;;;;21.37;4.23;;;4.90;99.90;;;;;;5035111;28;20252;-90
2024/01/27 03:40:34;;;;;;;23.60;4.07;;;5.00;99.90;;;;;;5035339;28;20182;-90
2024/01/27 03:43:01;;;;;;;20.43;3.67;;;5.00;99.90;;;;;;5035526;28;20613;-88
2024/01/27 03:45:27;;;;;;;23.43;3.17;;;5.00;99.90;;;;;;5035188;28;20191;-92
2024/01/27 03:47:52;;;;;;;18.97;2.60;;;4.90;99.90;;;;;;5035259;28;20190;-91
2024/01/27 03:50:18;;;;;;;16.70;2.97;;;5.00;99.90;;;;;;5035565;28;20199;-89
2024/01/27 03:52:45;;;;;;;22.17;4.30;;;4.90;99.90;;;;;;5034923;28;20186;-88
2024/01/27 03:55:11;;;;;;;17.13;3.00;;;4.90;99.90;;;;;;5035221;28;20178;-91
2024/01/27 03:57:37;;;;;;;17.87;3.37;;;4.90;99.90;;;;;;5463770;22;20562;-89
2024/01/27 04:00:04;;;;;;;16.13;2.97;;;4.90;99.90;;;;;;5030098;28;20187;-86
2024/01/27 04:02:29;;;;;;;17.10;3.13;;;4.90;99.90;;;;;;5007031;28;20285;-84
2024/01/27 04:04:55;;;;;;;25.30;3.50;;;4.80;99.90;;;;;;4998195;28;20251;-82
2024/01/27 04:07:21;;;;;;;19.53;3.07;;;4.80;99.90;;;;;;5002805;28;20203;-83
2024/01/27 04:09:47;;;;;;;19.33;3.90;;;4.90;99.90;;;;;;5002817;28;20202;-85
2024/01/27 04:12:13;;;;;;;24.20;3.77;;;4.80;99.90;;;;;;5002381;28;20179;-83
2024/01/27 04:14:38;;;;;;;16.40;3.00;;;4.80;99.90;;;;;;5001569;28;20191;-82
2024/01/27 04:17:04;;;;;;;18.73;3.10;;;4.80;99.90;;;;;;4996308;28;20904;-82
2024/01/27 04:19:30;;;;;;;16.53;3.83;;;4.70;99.90;;;;;;5009307;28;20644;-81
2024/01/27 04:21:56;;;;;;;20.27;3.23;;;4.70;99.90;;;;;;4995262;28;20188;-83
2024/01/27 04:24:22;;;;;;;24.63;3.73;;;4.70;99.90;;;;;;5005321;28;20232;-83
2024/01/27 04:26:48;;;;;;;23.90;3.73;;;4.60;99.90;;;;;;4998574;28;20196;-82
2024/01/27 04:29:15;;;;;;;19.37;3.40;;;4.70;99.90;;;;;;5004071;28;20229;-82
2024/01/27 04:31:41;;;;;;;20.70;3.33;;;4.70;99.90;;;;;;4995171;28;20187;-81
2024/01/27 04:34:07;;;;;;;24.30;3.30;;;4.80;99.90;;;;;;4994009;28;20614;-86
2024/01/27 04:36:33;;;;;;;19.53;3.03;;;4.70;99.90;;;;;;5002241;28;20242;-86
2024/01/27 04:38:59;;;;;;;20.47;3.30;;;4.70;99.90;;;;;;4995432;28;20238;-88
2024/01/27 04:41:25;;;;;;;19.23;2.90;;;4.70;99.90;;;;;;4999282;28;20240;-86
2024/01/27 04:43:52;;;;;;;15.90;3.07;;;4.70;99.90;;;;;;4998129;28;20211;-91
2024/01/27 04:46:18;;;;;;;17.97;3.10;;;4.60;99.90;;;;;;4994039;28;20623;-86
2024/01/27 04:48:44;;;;;;;21.13;3.13;;;4.50;99.90;;;;;;4995215;28;20188;-83
2024/01/27 04:51:10;;;;;;;29.17;3.00;;;4.50;99.90;;;;;;4995376;28;20196;-87
2024/01/27 04:53:36;;;;;;;18.10;3.00;;;4.50;99.90;;;;;;4994279;28;20520;-85
2024/01/27 04:56:01;;;;;;;20.73;3.30;;;4.50;99.90;;;;;;5009942;28;20187;-87
2024/01/27 04:58:27;;;;;;;17.83;3.40;;;4.50;99.90;;;;;;5006726;28;20692;-82
2024/01/27 05:00:53;;;;;;;20.17;3.73;;;4.40;99.90;;;;;;4998666;28;20238;-83
2024/01/27 05:03:19;;;;;;;22.40;3.60;;;4.40;99.90;;;;;;5005665;28;20254;-82
2024/01/27 05:05:44;;;;;;;15.37;3.33;;;4.30;99.90;;;;;;4998447;28;20634;-81
2024/01/27 05:08:10;;;;;;;24.23;4.00;;;4.30;99.90;;;;;;4993138;28;20580;-82
2024/01/27 05:10:36;;;;;;;18.30;3.23;;;4.30;99.90;;;;;;4993449;28;20243;-83
2024/01/27 05:13:02;;;;;;;18.83;2.97;;;4.30;99.90;;;;;;4992753;28;20194;-85
2024/01/27 05:15:28;;;;;;;23.27;3.93;;;4.30;99.90;;;;;;5006394;28;20191;-83
2024/01/27 05:17:54;;;;;;;21.47;4.00;;;4.10;99.90;;;;;;5014224;28;20183;-84
2024/01/27 05:20:20;;;;;;;24.13;3.53;;;4.10;99.90;;;;;;4999502;28;20198;-83
2024/01/27 05:22:46;;;;;;;13.87;3.10;;;4.10;99.90;;;;;;5009892;28;20199;-82
2024/01/27 05:25:11;;;;;;;19.03;3.00;;;4.00;99.90;;;;;;4994532;28;20223;-85
2024/01/27 05:27:38;;;;;;;18.47;2.93;;;4.00;99.90;;;;;;4999524;28;20191;-82
2024/01/27 05:30:06;;;;;;;24.37;3.30;;;3.90;99.90;;;;;;4995257;28;20188;-83
2024/01/27 05:32:32;;;;;;;16.17;3.60;;;3.90;99.90;;;;;;5012912;28;20183;-83
2024/01/27 05:34:58;;;;;;;18.53;2.63;;;3.90;99.90;;;;;;4996274;28;20204;-85
2024/01/27 05:37:23;;;;;;;21.47;3.60;;;3.80;99.90;;;;;;5000997;28;20258;-82
2024/01/27 05:39:49;;;;;;;19.63;4.10;;;3.80;99.90;;;;;;5001064;28;20191;-82
2024/01/27 05:42:15;;;;;;;14.10;2.80;;;3.70;99.90;;;;;;4994130;28;20198;-83
2024/01/27 05:44:41;;;;;;;19.17;3.40;;;3.60;99.90;;;;;;5001210;28;20220;-86
2024/01/27 05:47:07;;;;;;;19.83;3.80;;;3.60;99.90;;;;;;4993058;28;20211;-89
2024/01/27 05:49:33;;;;;;;16.83;3.07;;;3.50;99.90;;;;;;5026337;28;20231;-87
2024/01/27 05:51:59;;;;;;;17.87;3.23;;;3.50;99.90;;;;;;4994930;28;20215;-87
2024/01/27 05:54:25;;;;;;;16.77;3.57;;;3.50;99.90;;;;;;5001794;28;20195;-92
2024/01/27 05:56:51;;;;;;;16.70;3.23;;;3.50;99.90;;;;;;4993846;28;20188;-91
2024/01/27 05:59:16;;;;;;;15.10;3.13;;;3.40;99.90;;;;;;4994307;28;20203;-91
2024/01/27 06:01:44;;;;;;;14.93;3.00;;;3.50;99.90;;;;;;5009064;28;20270;-87
2024/01/27 06:04:12;;;;;;;13.43;2.70;;;3.30;99.90;;;;;;4995190;28;20696;-90
2024/01/27 06:06:39;;;;;;;20.67;3.30;;;3.30;99.90;;;;;;4998804;28;20183;-83
2024/01/27 06:09:05;;;;;;;19.77;4.07;;;3.30;99.90;;;;;;5004620;28;20660;-84
2024/01/27 06:11:31;;;;;;;21.30;3.70;;;3.30;99.90;;;;;;5001823;28;20290;-85
2024/01/27 06:13:58;;;;;;;20.50;3.20;;;3.30;99.90;;;;;;5001336;28;20282;-90
2024/01/27 06:16:24;;;;;;;25.53;3.87;;;3.30;99.90;;;;;;5001218;28;20246;-88
2024/01/27 06:18:50;;;;;;;19.50;3.60;;;3.30;99.90;;;;;;4993421;28;20191;-87
2024/01/27 06:21:16;;;;;;;25.00;3.30;;;3.30;99.90;;;;;;4994261;28;20180;-85
2024/01/27 06:23:42;;;;;;;18.70;3.70;;;3.30;99.90;;;;;;4993112;28;20598;-92
2024/01/27 06:26:08;;;;;;;16.23;3.67;;;3.20;99.90;;;;;;5011771;28;20206;-89
2024/01/27 06:28:35;;;;;;;19.57;3.57;;;3.20;99.90;;;;;;4998074;28;20180;-84
2024/01/27 06:31:02;;;;;;;13.90;2.50;;;3.20;99.90;;;;;;5029743;28;20195;-91
2024/01/27 06:33:28;;;;;;;17.47;3.97;;;3.20;99.90;;;;;;4998129;28;20187;-86
2024/01/27 06:35:54;;;;;;;17.00;3.37;;;3.10;99.90;;;;;;5005757;28;20270;-89
2024/01/27 06:38:20;;;;;;;23.93;4.10;;;3.10;99.90;;;;;;5006455;28;20517;-87
2024/01/27 06:40:47;;;;;;;18.73;3.37;;;3.10;99.90;;;;;;5005086;28;20207;-88
2024/01/27 06:43:14;;;;;;;22.83;3.20;;;3.10;99.90;;;;;;4996391;28;20531;-89
2024/01/27 06:45:40;;;;;;;18.60;3.27;;;3.10;99.90;;;;;;4997930;28;20262;-85
2024/01/27 06:48:06;;;;;;;17.93;2.97;;;3.10;99.90;;;;;;4997550;28;20194;-90
2024/01/27 06:50:33;;;;;;;15.97;4.17;;;3.10;99.90;;;;;;5004820;28;20603;-85
2024/01/27 06:52:59;;;;;;;17.80;3.73;;;3.00;99.90;;;;;;4996772;28;20187;-87
2024/01/27 06:55:25;;;;;;;17.53;2.90;;;3.00;99.90;;;;;;5009925;28;20187;-83
2024/01/27 06:57:51;;;;;;;17.27;2.67;;;3.00;99.90;;;;;;5009909;28;20231;-83
2024/01/27 07:00:17;;;;;;;19.10;3.57;;;3.00;99.90;;;;;;5005964;28;20192;-82
2024/01/27 07:02:43;;;;;;;17.33;3.20;;;3.00;99.90;;;;;;4995972;28;20250;-83
2024/01/27 07:05:09;;;;;;;15.83;3.03;;;3.00;99.90;;;;;;5013334;28;20629;-82
2024/01/27 07:07:35;;;;;;;20.83;3.33;;;3.00;99.90;;;;;;4995693;28;20202;-85
2024/01/27 07:10:03;;;;;;;24.60;3.47;;;3.00;99.90;;;;;;4995995;28;20278;-83
2024/01/27 07:12:28;;;;;;;16.97;3.80;;;3.00;99.90;;;;;;5002837;28;20229;-81
2024/01/27 07:14:59;;;;;;;18.50;3.77;;;3.00;99.90;;;;;;4995549;28;20644;-85
2024/01/27 07:17:26;;;;;;;17.87;3.63;;;3.00;99.90;;;;;;5003493;28;20191;-83
2024/01/27 07:19:53;;;;;;;17.40;2.80;;;2.90;99.90;;;;;;5004801;28;20631;-91
2024/01/27 07:22:19;;;;;;;17.20;2.63;;;2.90;99.90;;;;;;4995303;28;20271;-82
2024/01/27 07:24:45;;;;;;;19.03;3.17;;;2.90;99.90;;;;;;4996531;28;20362;-82
2024/01/27 07:27:13;;;;;;;17.80;2.90;;;2.90;99.90;;;;;;5006385;28;20194;-82
2024/01/27 07:29:40;;;;;;;16.23;3.50;;;3.00;99.90;;;;;;5013144;28;20627;-83
2024/01/27 07:32:08;;;;;;;18.27;3.33;;;3.00;99.90;;;;;;5016070;28;20535;-83
2024/01/27 07:34:34;;;;;;;14.87;3.50;;;3.00;99.90;;;;;;4996768;28;20176;-83
2024/01/27 07:37:00;;;;;;;29.57;3.17;;;3.00;99.90;;;;;;5003437;28;20188;-82
2024/01/27 07:39:25;;;;;;;18.83;3.63;;;3.00;99.90;;;;;;5000184;28;20190;-83
2024/01/27 07:41:51;;;;;;;15.20;2.97;;;3.00;99.90;;;;;;5000662;28;20188;-80
2024/01/27 07:44:18;;;;;;;14.13;3.30;;;3.00;99.90;;;;;;4994708;28;20227;-90
2024/01/27 07:46:44;;;;;;;16.30;2.80;;;3.00;99.90;;;;;;5004165;28;20190;-83
2024/01/27 07:49:12;;;;;;;17.53;3.00;;;3.00;99.90;;;;;;4994873;28;20286;-83
2024/01/27 07:51:38;;;;;;;13.73;2.83;;;3.00;99.90;;;;;;4994964;28;20589;-82
2024/01/27 07:54:04;;;;;;;19.43;3.40;;;3.10;99.90;;;;;;5002711;28;20214;-83
2024/01/27 07:56:30;;;;;;;15.40;2.83;;;3.10;99.90;;;;;;4998822;28;20187;-83
2024/01/27 07:58:56;;;;;;;12.27;2.97;;;3.10;99.90;;;;;;4996058;28;20270;-83
2024/01/27 08:01:23;;;;;;;16.77;3.07;;;3.10;99.90;;;;;;4999035;28;20179;-82
2024/01/27 08:03:49;;;;;;;22.30;3.37;;;3.10;99.90;;;;;;5000486;28;20207;-82
2024/01/27 08:06:17;;;;;;;21.27;3.27;;;3.10;99.90;;;;;;4994493;28;20286;-83
2024/01/27 08:08:48;;;;;;;16.97;3.10;;;3.20;99.90;;;;;;4994313;28;20184;-82
2024/01/27 08:11:15;;;;;;;19.10;2.97;;;3.20;99.90;;;;;;4994211;28;20219;-82
2024/01/27 08:13:44;;;;;;;17.07;3.30;;;3.20;99.90;;;;;;4995361;28;20246;-82
2024/01/27 08:16:12;;;;;;;22.80;3.60;;;3.20;99.90;;;;;;4995191;28;20246;-84
2024/01/27 08:18:42;;;;;;;19.00;3.17;;;3.30;99.90;;;;;;4997352;28;20183;-82
2024/01/27 08:21:08;;;;;;;16.20;3.80;;;3.30;99.90;;;;;;5001945;28;20649;-81
2024/01/27 08:23:34;;;;;;;16.70;3.33;;;3.40;99.90;;;;;;5005642;28;20642;-82
2024/01/27 08:26:00;;;;;;;14.83;2.70;;;3.40;99.90;;;;;;5001891;28;20198;-81
2024/01/27 08:28:26;;;;;;;17.57;3.47;;;3.50;99.90;;;;;;5005870;28;20184;-81
2024/01/27 08:30:53;;;;;;;15.57;2.93;;;3.50;99.90;;;;;;5008846;28;20229;-88
2024/01/27 08:33:19;;;;;;;22.10;2.83;;;3.60;99.90;;;;;;4997446;28;20255;-83
2024/01/27 08:35:47;;;;;;;19.80;3.40;;;3.60;99.90;;;;;;5002585;28;20236;-82
2024/01/27 08:38:14;;;;;;;15.17;3.10;;;3.60;99.90;;;;;;4998946;28;20287;-81
2024/01/27 08:40:39;;;;;;;18.93;3.33;;;3.70;99.90;;;;;;5003192;28;20195;-83
2024/01/27 08:43:05;;;;;;;19.03;3.53;;;3.70;99.90;;;;;;4999867;28;20183;-84
2024/01/27 08:45:32;;;;;;;16.83;3.50;;;3.70;99.90;;;;;;5002809;28;20215;-87
2024/01/27 08:47:58;;;;;;;19.93;4.27;;;3.70;99.90;;;;;;5003615;28;20322;-87
2024/01/27 08:50:24;;;;;;;11.93;3.30;;;3.80;99.90;;;;;;4998431;28;20215;-82
2024/01/27 08:52:50;;;;;;;15.53;3.30;;;3.90;99.90;;;;;;5000626;28;20688;-81
2024/01/27 08:55:18;;;;;;;19.17;3.47;;;3.90;99.90;;;;;;5004904;28;20302;-82
2024/01/27 08:57:46;;;;;;;15.53;4.47;;;3.80;99.90;;;;;;4999896;28;20223;-82
2024/01/27 09:00:13;;;;;;;14.50;3.57;;;3.90;99.90;;;;;;4998494;28;20218;-83
2024/01/27 09:02:39;;;;;;;20.17;4.00;;;4.00;99.90;;;;;;5004598;28;20205;-82
2024/01/27 09:05:05;;;;;;;19.03;3.73;;;4.00;99.90;;;;;;5004497;28;20215;-81
2024/01/27 09:07:31;;;;;;;17.23;4.40;;;4.10;99.90;;;;;;5007218;28;20190;-85
2024/01/27 09:09:57;;;;;;;16.73;3.67;;;4.20;99.90;;;;;;5011424;28;20187;-84
2024/01/27 09:12:23;;;;;;;12.80;3.37;;;4.20;99.90;;;;;;5010087;28;20184;-82
2024/01/27 09:14:49;;;;;;;20.63;3.90;;;4.30;99.90;;;;;;5010136;28;20210;-82
2024/01/27 09:17:14;;;;;;;20.37;4.13;;;4.40;99.90;;;;;;5004008;28;20190;-82
2024/01/27 09:19:40;;;;;;;20.33;3.63;;;4.40;99.90;;;;;;5005440;28;20562;-81
2024/01/27 09:22:06;;;;;;;14.47;3.43;;;4.50;99.90;;;;;;5008547;28;20686;-80
2024/01/27 09:24:32;;;;;;;22.00;3.50;;;4.60;99.90;;;;;;4998521;28;20216;-83
2024/01/27 09:26:58;;;;;;;15.20;4.03;;;4.60;99.90;;;;;;4992983;28;20500;-82
2024/01/27 09:29:24;;;;;;;22.37;4.47;;;4.60;99.90;;;;;;5000354;28;20238;-82
2024/01/27 09:31:50;;;;;;;18.93;3.70;;;4.50;99.90;;;;;;5000722;28;20188;-83
2024/01/27 09:34:15;;;;;;;17.73;3.97;;;4.60;99.90;;;;;;4999444;28;20201;-82
2024/01/27 09:36:41;;;;;;;20.90;4.33;;;4.70;99.90;;;;;;5008031;28;20179;-85
2024/01/27 09:39:08;;;;;;;15.57;3.70;;;4.80;99.90;;;;;;4994274;28;20255;-82
2024/01/27 09:41:34;;;;;;;30.07;5.07;;;4.90;99.90;;;;;;5009205;28;20186;-85
2024/01/27 09:44:02;;;;;;;19.97;3.90;;;5.00;99.90;;;;;;5001517;28;20208;-84
2024/01/27 09:46:30;;;;;;;13.80;3.67;;;5.00;99.90;;;;;;4991868;28;20192;-84
2024/01/27 09:48:56;;;;;;;16.37;4.00;;;5.00;99.90;;;;;;4996866;28;20199;-80
2024/01/27 09:51:22;;;;;;;30.33;4.77;;;5.00;99.90;;;;;;4995093;28;20187;-90
2024/01/27 09:53:52;;;;;;;19.60;4.13;;;5.00;99.90;;;;;;4996006;28;20257;-89
2024/01/27 09:56:18;;;;;;;15.17;3.90;;;5.10;99.90;;;;;;4993848;28;20602;-91
2024/01/27 09:58:45;;;;;;;18.60;4.20;;;5.10;99.90;;;;;;4992832;28;20564;-92
2024/01/27 10:01:12;;;;;;;16.77;4.17;;;5.10;99.90;;;;;;5002659;28;20193;-89
2024/01/27 10:03:43;;;;;;;16.03;4.13;;;5.10;99.90;;;;;;4996676;28;20211;-87
2024/01/27 10:06:09;;;;;;;11.33;3.57;;;5.10;99.90;;;;;;5002935;28;20187;-85
2024/01/27 10:08:36;;;;;;;18.20;4.63;;;5.10;99.90;;;;;;5004064;28;20524;-90
2024/01/27 10:11:07;;;;;;;13.50;4.10;;;5.20;99.90;;;;;;5006125;28;20210;-88
2024/01/27 10:13:34;;;;;;;25.57;4.40;;;5.30;99.90;;;;;;5005903;28;20179;-86
2024/01/27 10:16:05;;;;;;;20.27;4.53;;;5.30;99.90;;;;;;5014166;28;20253;-86
2024/01/27 10:18:31;;;;;;;17.33;4.60;;;5.40;99.90;;;;;;5007565;28;20245;-81
2024/01/27 10:20:57;;;;;;;17.73;4.30;;;5.40;99.90;;;;;;5006459;28;20245;-84
2024/01/27 10:23:23;;;;;;;19.03;3.83;;;5.40;99.90;;;;;;5007822;28;20271;-82
2024/01/27 10:25:50;;;;;;;19.00;4.30;;;5.50;99.90;;;;;;5008903;28;20254;-85
2024/01/27 10:28:16;;;;;;;17.03;4.67;;;5.50;99.90;;;;;;5000632;28;20223;-87
2024/01/27 10:30:43;;;;;;;13.97;3.97;;;5.50;99.90;;;;;;5004665;28;20184;-89
2024/01/27 10:33:16;;;;;;;19.93;4.13;;;5.50;99.90;;;;;;5011071;28;20214;-86
2024/01/27 10:35:43;;;;;;;21.13;4.53;;;5.50;99.90;;;;;;4999259;28;20188;-85
2024/01/27 10:38:09;;;;;;;18.40;4.77;;;5.50;99.90;;;;;;5005421;28;20183;-84
2024/01/27 10:40:37;;;;;;;23.73;5.03;;;5.70;99.90;;;;;;5011667;28;20191;-85
2024/01/27 10:43:08;;;;;;;13.53;4.17;;;5.70;99.90;;;;;;5006649;28;20265;-86
2024/01/27 10:45:36;;;;;;;20.63;5.17;;;5.70;99.90;;;;;;5015779;28;20199;-90
2024/01/27 10:48:03;;;;;;;15.97;4.63;;;5.70;99.90;;;;;;5013555;28;20198;-90
2024/01/27 10:50:30;;;;;;;18.60;4.60;;;5.60;99.90;;;;;;5013603;28;20183;-87
2024/01/27 10:53:03;;;;;;;18.00;4.43;;;5.70;99.90;;;;;;5008420;28;20192;-85
2024/01/27 10:55:33;;;;;;;10.53;4.03;;;5.90;99.90;;;;;;5009622;28;20187;-85
2024/01/27 10:58:01;;;;;;;18.33;5.37;;;5.90;99.90;;;;;;5010512;28;20346;-87
2024/01/27 11:00:30;;;;;;;19.33;5.03;;;5.90;99.90;;;;;;5007269;28;20266;-84
2024/01/27 11:02:59;;;;;;;18.50;4.77;;;5.90;99.90;;;;;;5012428;28;20261;-82
2024/01/27 11:05:26;;;;;;;17.03;4.63;;;6.00;99.90;;;;;;4999006;28;20207;-85
2024/01/27 11:07:54;;;;;;;15.33;4.43;;;6.10;99.90;;;;;;4996146;28;20267;-88
2024/01/27 11:10:19;;;;;;;15.87;4.77;;;6.20;99.90;;;;;;5003522;28;20571;-83
2024/01/27 11:12:48;;;;;;;17.33;4.13;;;6.20;99.90;;;;;;5009533;28;20260;-82
2024/01/27 11:15:14;;;;;;;15.70;4.07;;;6.20;99.90;;;;;;4999665;28;20188;-82
2024/01/27 11:17:44;;;;;;;15.17;4.00;;;6.20;99.90;;;;;;5000844;28;20198;-83
2024/01/27 11:20:16;;;;;;;17.70;4.13;;;6.40;99.90;;;;;;4995440;28;20195;-82
2024/01/27 11:22:43;;;;;;;17.73;4.53;;;6.60;99.90;;;;;;4995027;28;20187;-85
2024/01/27 11:25:13;;;;;;;15.03;4.47;;;6.60;99.90;;;;;;4996087;28;20226;-84
2024/01/27 11:27:40;;;;;;;21.03;5.20;;;6.50;99.90;;;;;;5001760;28;20180;-83
2024/01/27 11:30:25;;;;;;;18.13;4.57;;;6.50;99.90;;;;;;4993855;28;20262;-84
2024/01/27 11:32:50;;;;;;;17.20;4.97;;;6.50;99.90;;;;;;5004276;28;20189;-81
2024/01/27 11:35:19;;;;;;;16.20;4.83;;;6.60;99.90;;;;;;4995444;28;20191;-82
2024/01/27 11:37:45;;;;;;;15.03;4.50;;;6.50;99.90;;;;;;5002825;28;20644;-84
2024/01/27 11:40:12;;;;;;;14.60;4.33;;;6.60;99.90;;;;;;4997195;28;20180;-82
2024/01/27 11:42:37;;;;;;;16.80;4.47;;;6.70;99.90;;;;;;5000848;28;20238;-82
2024/01/27 11:45:04;;;;;;;15.20;4.20;;;6.80;99.90;;;;;;4997415;28;20584;-80
2024/01/27 11:47:30;;;;;;;14.77;3.90;;;7.00;99.90;;;;;;4994566;28;20286;-80
2024/01/27 11:49:57;;;;;;;13.47;4.13;;;7.00;99.90;;;;;;4998036;28;20225;-81
2024/01/27 11:52:25;;;;;;;19.93;4.67;;;7.00;99.90;;;;;;4997459;28;20630;-83
2024/01/27 11:54:58;;;;;;;17.37;4.43;;;6.90;99.90;;;;;;5004389;28;20183;-82
2024/01/27 11:57:24;;;;;;;21.90;5.17;;;6.80;99.90;;;;;;4998516;28;20656;-82
2024/01/27 11:59:54;;;;;;;18.37;4.60;;;6.90;99.90;;;;;;5005184;28;20192;-81
2024/01/27 12:02:20;;;;;;;17.67;5.03;;;6.90;99.90;;;;;;5003979;28;20669;-83
2024/01/27 12:04:48;;;;;;;21.00;4.90;;;6.90;99.90;;;;;;5000656;28;20218;-85
2024/01/27 12:07:21;;;;;;;14.37;4.63;;;6.90;99.90;;;;;;5000558;28;20179;-81
2024/01/27 12:09:50;;;;;;;17.87;5.23;;;7.00;99.90;;;;;;4999162;28;20745;-80
2024/01/27 12:12:16;;;;;;;11.80;4.47;;;7.00;99.90;;;;;;5005790;28;20187;-84
2024/01/27 12:14:45;;;;;;;20.80;5.47;;;7.10;99.90;;;;;;5012741;28;20180;-80
2024/01/27 12:17:11;;;;;;;16.50;5.20;;;7.10;99.90;;;;;;5003955;28;20206;-83
2024/01/27 12:19:38;;;;;;;20.43;4.93;;;7.10;99.90;;;;;;5009126;28;20191;-82
2024/01/27 12:22:20;;;;;;;15.33;4.40;;;7.10;99.90;;;;;;5010112;28;20650;-82
2024/01/27 12:24:46;;;;;;;15.07;5.37;;;7.10;99.90;;;;;;5006600;28;20681;-86
2024/01/27 12:27:12;;;;;;;12.20;4.30;;;7.30;99.90;;;;;;5007418;28;20180;-82
2024/01/27 12:29:40;;;;;;;19.03;4.60;;;7.30;99.90;;;;;;5007742;28;20241;-84
2024/01/27 12:32:07;;;;;;;13.47;5.13;;;7.20;99.90;;;;;;5011460;28;20183;-83
2024/01/27 12:34:39;;;;;;;20.27;5.47;;;7.30;99.90;;;;;;5013222;28;20183;-86
2024/01/27 12:37:05;;;;;;;22.30;5.83;;;7.30;99.90;;;;;;5005518;28;20261;-86
2024/01/27 12:39:31;;;;;;;19.90;5.77;;;7.30;99.90;;;;;;5008971;28;20187;-82
2024/01/27 12:41:57;;;;;;;24.50;5.77;;;7.20;99.90;;;;;;4993971;28;20184;-85
2024/01/27 12:44:23;;;;;;;16.67;5.00;;;7.30;99.90;;;;;;5001045;28;20207;-82